Time;durP1;ratioP1;P1;durP2;ratioP2;P2;SDS_P1;SDS_P2;PMS_P1;PMS_P2;Temp;Humidity;BMP_temperature;BMP_pressure;BME280_temperature;BME280_humidity;BME280_pressure;Samples;Min_cycle;Max_cycle;Signal;HPM_P1;HPM_P2
2023/01/04 03:07:39;;;;;;;17.77;16.27;;;1.20;99.90;;;;;;4919551;29;20482;-79
2023/01/04 03:10:10;;;;;;;16.90;15.40;;;1.20;99.90;;;;;;4918140;29;20868;-78
2023/01/04 03:12:43;;;;;;;17.03;15.57;;;1.20;99.90;;;;;;4918562;29;21006;-79
2023/01/04 03:15:14;;;;;;;17.13;15.67;;;1.20;99.90;;;;;;4920348;29;20448;-80
2023/01/04 03:17:47;;;;;;;17.13;15.73;;;1.20;99.90;;;;;;4918696;29;21048;-79
2023/01/04 03:20:17;;;;;;;17.10;15.70;;;1.20;99.90;;;;;;4917583;29;20444;-79
2023/01/04 03:37:01;;;;;;;16.93;15.50;;;1.10;99.90;;;;;;4907682;29;20462;-78
2023/01/04 03:48:30;;;;;;;17.57;16.07;;;1.10;99.90;;;;;;4917763;29;20451;-78
2023/01/04 03:51:07;;;;;;;17.33;15.93;;;1.10;99.90;;;;;;4917472;29;21013;-78
2023/01/04 03:53:38;;;;;;;17.30;15.77;;;1.10;99.90;;;;;;4919141;29;20503;-80
2023/01/04 03:56:07;;;;;;;17.67;16.03;;;1.20;99.90;;;;;;4917020;29;20519;-78
2023/01/04 03:58:34;;;;;;;18.03;16.43;;;1.20;99.90;;;;;;4919345;29;20501;-78
2023/01/04 04:01:02;;;;;;;17.67;16.27;;;1.30;99.90;;;;;;4917513;29;21112;-76
2023/01/04 04:09:01;;;;;;;16.50;15.10;;;1.20;99.90;;;;;;4920246;29;20439;-78
2023/01/04 04:11:31;;;;;;;18.13;16.53;;;1.20;99.90;;;;;;4912842;29;20467;-77
2023/01/04 04:13:59;;;;;;;18.13;16.53;;;1.10;99.90;;;;;;4922833;29;20536;-81
2023/01/04 04:16:27;;;;;;;17.57;16.23;;;1.10;99.90;;;;;;4917130;29;20432;-78
2023/01/04 04:18:54;;;;;;;17.80;16.30;;;1.10;99.90;;;;;;4917400;29;20987;-79
2023/01/04 04:21:22;;;;;;;17.90;16.27;;;1.10;99.90;;;;;;4916800;29;20935;-79
2023/01/04 04:23:49;;;;;;;16.80;15.40;;;1.10;99.90;;;;;;4917580;29;20512;-78
2023/01/04 04:26:17;;;;;;;17.63;16.13;;;1.20;99.90;;;;;;4918092;29;20475;-80
2023/01/04 04:28:44;;;;;;;17.10;15.70;;;1.20;99.90;;;;;;4917102;29;20475;-79
2023/01/04 04:31:11;;;;;;;16.50;15.10;;;1.20;99.90;;;;;;4911831;29;20484;-81
2023/01/04 04:33:38;;;;;;;18.00;16.37;;;1.10;99.90;;;;;;4917696;29;20495;-79
2023/01/04 04:36:06;;;;;;;18.17;16.70;;;1.20;99.90;;;;;;4919553;29;20454;-79
2023/01/04 04:38:34;;;;;;;16.93;15.53;;;1.30;99.90;;;;;;4917034;29;20490;-79
2023/01/04 04:43:51;;;;;;;17.00;15.70;;;1.30;99.90;;;;;;4929782;29;20966;-78
2023/01/04 04:46:18;;;;;;;17.30;15.90;;;1.40;99.90;;;;;;4916590;29;20519;-79
2023/01/04 04:48:44;;;;;;;17.30;15.90;;;1.50;99.90;;;;;;4915590;29;20455;-78
2023/01/04 04:51:13;;;;;;;17.50;16.13;;;1.60;99.90;;;;;;4916166;29;20258;-79
2023/01/04 04:53:42;;;;;;;16.43;15.17;;;1.70;99.90;;;;;;4915787;29;20267;-78
2023/01/04 04:56:09;;;;;;;17.37;16.00;;;1.80;99.90;;;;;;4917168;29;20455;-79
2023/01/04 04:58:37;;;;;;;17.10;15.70;;;1.90;99.90;;;;;;4915862;29;20871;-78
2023/01/04 05:01:07;;;;;;;17.10;15.80;;;2.00;99.90;;;;;;4915347;29;21058;-78
2023/01/04 05:03:35;;;;;;;16.07;14.67;;;2.00;99.90;;;;;;4916511;29;20259;-79
2023/01/04 05:06:02;;;;;;;17.20;15.80;;;2.00;99.90;;;;;;4917652;29;20872;-79
2023/01/04 05:08:29;;;;;;;17.53;16.03;;;2.00;99.90;;;;;;4911036;29;20627;-78
2023/01/04 05:10:57;;;;;;;16.80;15.40;;;2.10;99.90;;;;;;4914253;29;20227;-78
2023/01/04 05:13:23;;;;;;;17.17;15.77;;;2.10;99.90;;;;;;4917069;29;20232;-79
2023/01/04 05:15:53;;;;;;;17.37;15.87;;;2.10;99.90;;;;;;4916116;29;20228;-79
2023/01/04 05:18:22;;;;;;;16.17;14.87;;;2.20;99.90;;;;;;4910696;29;20638;-79
2023/01/04 05:20:49;;;;;;;15.47;14.27;;;2.20;99.90;;;;;;4916680;29;20744;-78
2023/01/04 05:23:18;;;;;;;16.90;15.40;;;2.20;99.90;;;;;;4917655;29;20252;-77
2023/01/04 05:25:46;;;;;;;16.87;15.40;;;2.30;99.90;;;;;;4913517;29;20223;-78
2023/01/04 05:28:14;;;;;;;16.83;15.50;;;2.40;99.90;;;;;;4916167;29;20232;-79
2023/01/04 05:30:52;;;;;;;16.37;15.03;;;2.40;99.90;;;;;;4914869;29;20208;-78
2023/01/04 05:33:21;;;;;;;16.67;15.27;;;2.40;99.90;;;;;;4905984;29;20292;-79
2023/01/04 05:35:49;;;;;;;16.17;14.87;;;2.50;99.90;;;;;;4913615;29;20200;-78
2023/01/04 05:38:16;;;;;;;16.10;14.90;;;2.50;99.90;;;;;;4929178;29;20632;-79
2023/01/04 05:40:44;;;;;;;16.53;15.17;;;2.60;99.90;;;;;;4915315;29;20671;-79
2023/01/04 05:43:12;;;;;;;16.80;15.30;;;2.60;99.90;;;;;;4917690;29;20262;-78
2023/01/04 05:45:40;;;;;;;17.07;15.67;;;2.70;99.90;;;;;;4918117;29;20255;-78
2023/01/04 05:48:07;;;;;;;16.17;14.87;;;2.70;99.90;;;;;;4911877;29;20315;-78
2023/01/04 05:50:34;;;;;;;16.80;15.50;;;2.70;99.90;;;;;;4914408;29;20212;-77
2023/01/04 05:53:04;;;;;;;16.63;15.33;;;2.80;99.90;;;;;;4916163;29;20196;-79
2023/01/04 05:55:31;;;;;;;16.70;15.30;;;2.80;99.90;;;;;;4917353;29;20200;-82
2023/01/04 05:57:58;;;;;;;15.77;14.57;;;2.80;99.90;;;;;;4916454;29;20294;-80
2023/01/04 06:00:25;;;;;;;15.73;14.47;;;2.90;99.90;;;;;;4915479;29;20223;-79
2023/01/04 06:02:54;;;;;;;14.60;13.60;;;3.00;99.90;;;;;;4917617;29;20226;-78
2023/01/04 06:05:21;;;;;;;14.77;13.63;;;3.10;99.90;;;;;;4915396;29;20211;-77
2023/01/04 06:07:48;;;;;;;15.10;13.97;;;3.20;99.90;;;;;;4918773;29;20240;-77
2023/01/04 06:10:15;;;;;;;14.87;13.77;;;3.20;99.90;;;;;;4919500;29;20733;-78
2023/01/04 06:12:42;;;;;;;14.60;13.47;;;3.20;99.90;;;;;;4919398;29;20775;-77
2023/01/04 06:15:11;;;;;;;14.23;13.23;;;3.20;99.90;;;;;;4920641;29;20629;-78
2023/01/04 06:17:38;;;;;;;14.10;13.10;;;3.30;99.90;;;;;;4920539;29;20287;-77
2023/01/04 06:20:09;;;;;;;15.03;14.03;;;3.40;99.90;;;;;;4919024;29;20203;-78
2023/01/04 06:22:37;;;;;;;14.93;13.83;;;3.30;99.90;;;;;;4920025;29;20266;-77
2023/01/04 06:25:04;;;;;;;14.50;13.30;;;3.40;99.90;;;;;;4920232;29;20673;-77
2023/01/04 06:27:31;;;;;;;14.60;13.60;;;3.40;99.90;;;;;;4921306;29;20271;-77
2023/01/04 06:29:57;;;;;;;14.40;13.40;;;3.40;99.90;;;;;;4920767;29;20255;-76
2023/01/04 06:32:24;;;;;;;14.63;13.63;;;3.40;99.90;;;;;;4922011;29;20232;-77
2023/01/04 06:34:51;;;;;;;15.00;13.90;;;3.50;99.90;;;;;;4921868;29;20196;-76
2023/01/04 06:37:19;;;;;;;15.17;14.10;;;3.50;99.90;;;;;;4915512;29;20259;-76
2023/01/04 06:39:46;;;;;;;14.80;13.70;;;3.50;99.90;;;;;;4918161;29;20259;-76
2023/01/04 06:44:53;;;;;;;14.67;13.57;;;3.60;99.90;;;;;;4920702;29;20200;-78
2023/01/04 06:47:21;;;;;;;14.43;13.43;;;3.60;99.90;;;;;;4919850;29;20216;-77
2023/01/04 06:49:48;;;;;;;14.07;13.17;;;3.80;99.90;;;;;;4920017;29;20256;-77
2023/01/04 06:52:15;;;;;;;12.93;12.13;;;3.80;99.90;;;;;;4917810;29;20303;-78
2023/01/04 06:54:43;;;;;;;13.00;12.20;;;3.90;99.90;;;;;;4933677;29;20204;-77
2023/01/04 06:57:10;;;;;;;12.97;12.17;;;4.00;99.90;;;;;;4916680;29;20260;-76
2023/01/04 06:59:37;;;;;;;13.00;12.20;;;4.00;99.90;;;;;;4917658;29;20251;-76
2023/01/04 07:02:04;;;;;;;12.80;12.00;;;4.10;99.90;;;;;;4917918;29;20251;-76
2023/01/04 07:04:31;;;;;;;13.83;12.93;;;4.10;99.90;;;;;;4918594;29;20228;-77
2023/01/04 07:06:57;;;;;;;14.00;13.17;;;4.20;99.90;;;;;;4921539;29;20220;-77
2023/01/04 07:09:24;;;;;;;14.20;13.30;;;4.20;99.90;;;;;;4919647;29;20207;-77
2023/01/04 07:11:52;;;;;;;13.70;12.90;;;4.30;99.90;;;;;;4918283;29;20219;-77
2023/01/04 07:14:19;;;;;;;14.17;13.07;;;4.40;99.90;;;;;;4916819;29;20642;-77
2023/01/04 07:16:46;;;;;;;13.50;12.70;;;4.40;99.90;;;;;;4917669;29;20252;-77
2023/01/04 07:19:13;;;;;;;13.33;12.50;;;4.50;99.90;;;;;;4917854;29;20540;-77
2023/01/04 07:21:39;;;;;;;13.90;13.10;;;4.50;99.90;;;;;;4918027;29;20223;-78
2023/01/04 07:24:06;;;;;;;14.33;13.47;;;4.60;99.90;;;;;;4918842;29;20199;-77
2023/01/04 07:26:33;;;;;;;13.60;12.80;;;4.60;99.90;;;;;;4917871;29;20204;-77
2023/01/04 07:29:14;;;;;;;13.40;12.60;;;4.70;99.90;;;;;;4919796;29;20255;-76
2023/01/04 07:31:41;;;;;;;12.73;12.03;;;4.80;99.90;;;;;;4919087;29;20647;-77
2023/01/04 07:34:08;;;;;;;12.97;12.27;;;4.80;99.90;;;;;;4919501;29;20231;-77
2023/01/04 07:36:35;;;;;;;13.23;12.50;;;4.80;99.90;;;;;;4919831;29;20204;-77
2023/01/04 07:39:02;;;;;;;12.60;11.90;;;4.90;99.90;;;;;;4919547;29;20268;-77
2023/01/04 07:41:29;;;;;;;12.60;11.80;;;4.90;99.90;;;;;;4917679;29;20233;-77
2023/01/04 07:43:56;;;;;;;12.37;11.67;;;5.00;99.90;;;;;;4918195;29;20701;-77
2023/01/04 07:46:24;;;;;;;12.07;11.37;;;5.10;99.90;;;;;;4917807;29;20229;-77
2023/01/04 07:48:51;;;;;;;12.13;11.43;;;5.20;99.90;;;;;;4919726;29;20220;-77
2023/01/04 07:51:17;;;;;;;12.47;11.77;;;5.20;99.90;;;;;;4917266;29;20232;-77
2023/01/04 07:53:44;;;;;;;12.03;11.33;;;5.30;99.90;;;;;;4919596;29;20196;-76
2023/01/04 07:56:11;;;;;;;12.30;11.60;;;5.30;99.90;;;;;;4919360;29;20732;-77
2023/01/04 07:58:38;;;;;;;12.30;11.60;;;5.40;99.90;;;;;;4919129;29;20267;-78
2023/01/04 08:01:07;;;;;;;12.13;11.43;;;5.50;99.90;;;;;;4917084;29;20280;-77
2023/01/04 08:03:35;;;;;;;11.97;11.27;;;5.60;99.90;;;;;;4917693;29;20201;-78
2023/01/04 08:06:03;;;;;;;12.20;11.40;;;5.60;99.90;;;;;;4917843;29;20257;-77
2023/01/04 08:08:30;;;;;;;11.90;11.20;;;5.70;99.90;;;;;;4918122;29;20228;-78
2023/01/04 08:11:01;;;;;;;11.93;11.13;;;5.70;99.90;;;;;;4918196;29;20217;-77
2023/01/04 08:13:27;;;;;;;11.80;11.10;;;5.80;99.90;;;;;;4926277;29;20554;-77
2023/01/04 08:15:55;;;;;;;11.60;10.93;;;5.80;99.90;;;;;;4918755;29;20205;-77
2023/01/04 08:18:22;;;;;;;11.57;10.97;;;5.90;99.90;;;;;;4916880;29;20259;-77
2023/01/04 08:20:51;;;;;;;11.77;11.07;;;5.90;99.90;;;;;;4916744;29;20216;-78
2023/01/04 08:23:17;;;;;;;12.30;11.60;;;6.00;99.90;;;;;;4918994;29;20261;-77
2023/01/04 08:25:44;;;;;;;12.27;11.57;;;6.00;99.90;;;;;;4917060;29;20205;-77
2023/01/04 08:28:11;;;;;;;11.87;11.17;;;6.00;99.90;;;;;;4916029;29;20222;-77
2023/01/04 08:30:38;;;;;;;11.67;10.97;;;6.00;99.90;;;;;;4916934;29;20206;-78
2023/01/04 08:33:15;;;;;;;11.20;10.60;;;6.10;99.90;;;;;;4917964;29;20233;-78
2023/01/04 08:35:42;;;;;;;11.40;10.70;;;6.10;99.90;;;;;;4912248;29;20201;-77
2023/01/04 08:38:10;;;;;;;11.40;10.60;;;6.10;99.90;;;;;;4917197;29;20625;-78
2023/01/04 08:40:37;;;;;;;11.47;10.77;;;6.20;99.90;;;;;;4917252;29;20202;-77
2023/01/04 08:43:04;;;;;;;10.80;10.20;;;6.20;99.90;;;;;;4917289;29;20214;-78
2023/01/04 08:45:31;;;;;;;10.90;10.30;;;6.20;99.90;;;;;;4917366;29;20249;-78
2023/01/04 08:47:57;;;;;;;10.97;10.37;;;6.30;99.90;;;;;;4918131;29;20750;-78
2023/01/04 08:50:24;;;;;;;10.93;10.33;;;6.30;99.90;;;;;;4917432;29;20273;-78
2023/01/04 08:52:51;;;;;;;11.10;10.40;;;6.30;99.90;;;;;;4918288;29;20271;-78
2023/01/04 08:55:19;;;;;;;11.93;11.13;;;6.40;99.90;;;;;;4918233;29;20218;-77
2023/01/04 08:57:46;;;;;;;11.00;10.30;;;6.40;99.90;;;;;;4920113;29;20227;-78
2023/01/04 09:00:15;;;;;;;11.23;10.33;;;6.50;99.90;;;;;;4919156;29;20570;-78
2023/01/04 09:02:42;;;;;;;10.70;9.80;;;6.60;99.90;;;;;;4918177;29;20223;-77
2023/01/04 09:05:09;;;;;;;11.57;10.07;;;6.70;99.90;;;;;;4919727;29;20206;-77
2023/01/04 09:07:35;;;;;;;10.43;9.83;;;6.80;99.90;;;;;;4918942;29;20641;-78
2023/01/04 09:10:02;;;;;;;10.63;10.03;;;6.80;99.90;;;;;;4918674;29;20227;-77
2023/01/04 09:12:31;;;;;;;10.70;10.10;;;6.90;99.90;;;;;;4919352;29;20227;-77
2023/01/04 09:14:57;;;;;;;10.60;10.00;;;6.90;99.90;;;;;;4919790;29;20258;-78
2023/01/04 09:17:24;;;;;;;10.23;9.63;;;7.00;99.90;;;;;;4920129;29;20194;-77
2023/01/04 09:19:51;;;;;;;10.10;9.50;;;7.10;99.90;;;;;;4916136;29;20788;-77
2023/01/04 09:22:18;;;;;;;10.30;9.70;;;7.20;99.90;;;;;;4918356;29;20230;-77
2023/01/04 09:24:44;;;;;;;10.17;9.57;;;7.30;99.90;;;;;;4920006;29;20679;-78
2023/01/04 09:27:11;;;;;;;9.97;9.37;;;7.40;99.90;;;;;;4920190;29;20254;-80
2023/01/04 09:29:40;;;;;;;9.83;9.33;;;7.50;99.90;;;;;;4920124;29;20215;-78
2023/01/04 09:32:07;;;;;;;9.70;9.20;;;7.60;99.90;;;;;;4918899;29;20231;-79
2023/01/04 09:34:34;;;;;;;10.07;9.53;;;7.60;99.90;;;;;;4916545;29;20203;-78
2023/01/04 09:37:00;;;;;;;10.10;9.60;;;7.70;99.90;;;;;;4916886;29;20211;-78
2023/01/04 09:39:29;;;;;;;10.70;10.10;;;7.70;99.90;;;;;;4917981;29;20806;-80
2023/01/04 09:41:57;;;;;;;10.50;9.80;;;7.80;99.90;;;;;;4916295;29;20642;-80
2023/01/04 09:44:49;;;;;;;9.00;8.50;;;7.90;99.90;;;;;;4918074;29;20204;-86
2023/01/04 09:47:21;;;;;;;9.30;8.70;;;8.00;99.90;;;;;;4908722;29;20204;-81
2023/01/04 09:49:52;;;;;;;9.17;8.67;;;8.10;99.90;;;;;;4917697;29;20248;-81
2023/01/04 09:52:22;;;;;;;9.37;8.87;;;8.20;99.90;;;;;;4916900;29;20223;-79
2023/01/04 09:54:53;;;;;;;9.30;8.77;;;8.30;99.90;;;;;;4918004;29;20227;-78
2023/01/04 09:57:24;;;;;;;9.10;8.60;;;8.40;99.90;;;;;;4915861;29;20586;-78
2023/01/04 09:59:59;;;;;;;9.70;9.10;;;8.40;99.90;;;;;;4916154;29;20200;-78
2023/01/04 10:02:38;;;;;;;9.23;8.63;;;8.40;99.90;;;;;;4918075;29;20223;-79
2023/01/04 10:05:06;;;;;;;9.20;8.70;;;8.50;99.90;;;;;;4918625;29;20632;-78
2023/01/04 10:07:34;;;;;;;9.20;8.70;;;8.50;99.90;;;;;;4917437;29;20203;-78
2023/01/04 10:10:01;;;;;;;9.13;8.63;;;8.50;99.90;;;;;;4916748;29;20628;-79
2023/01/04 10:12:44;;;;;;;9.47;8.87;;;8.50;99.90;;;;;;4908941;29;20324;-79
2023/01/04 10:15:26;;;;;;;9.10;8.60;;;8.50;99.90;;;;;;4915414;29;20673;-79
2023/01/04 10:18:08;;;;;;;9.73;9.17;;;8.50;99.90;;;;;;4908218;29;20200;-78
2023/01/04 10:21:00;;;;;;;9.20;8.70;;;8.50;99.90;;;;;;4898533;29;20205;-79
2023/01/04 10:23:40;;;;;;;9.37;8.87;;;8.50;99.90;;;;;;4905816;29;20637;-79
2023/01/04 10:26:12;;;;;;;9.07;8.57;;;8.50;99.90;;;;;;4915106;29;20208;-78
2023/01/04 10:28:54;;;;;;;9.40;8.80;;;8.50;99.90;;;;;;4899740;29;20280;-77
2023/01/04 10:31:31;;;;;;;9.30;8.80;;;8.50;99.90;;;;;;4900272;29;20224;-79
2023/01/04 10:34:06;;;;;;;9.10;8.60;;;8.50;99.90;;;;;;4914547;29;20676;-79
2023/01/04 10:36:33;;;;;;;9.40;8.80;;;8.60;99.90;;;;;;4902290;29;20210;-77
2023/01/04 10:39:02;;;;;;;9.37;8.67;;;8.70;99.90;;;;;;4916225;29;20632;-78
2023/01/04 10:41:35;;;;;;;9.00;8.50;;;8.70;99.90;;;;;;4916782;29;20223;-78
2023/01/04 10:44:10;;;;;;;8.57;8.07;;;8.80;99.90;;;;;;4916111;29;20266;-77
2023/01/04 10:46:46;;;;;;;8.97;8.37;;;8.90;99.90;;;;;;4916510;29;20207;-79
2023/01/04 10:49:18;;;;;;;8.50;8.00;;;8.90;99.90;;;;;;4916002;29;20740;-80
2023/01/04 10:51:52;;;;;;;8.80;8.20;;;8.90;99.90;;;;;;4916543;29;20216;-79
2023/01/04 10:54:27;;;;;;;9.10;8.50;;;9.00;99.90;;;;;;4919379;29;20665;-81
2023/01/04 10:56:59;;;;;;;9.00;8.50;;;9.00;99.90;;;;;;4918600;29;20215;-77
2023/01/04 10:59:35;;;;;;;9.83;9.10;;;9.10;99.90;;;;;;4917579;29;20629;-78
2023/01/04 11:02:12;;;;;;;9.43;8.90;;;9.00;99.90;;;;;;4919684;29;20236;-78
2023/01/04 11:04:44;;;;;;;9.60;9.00;;;9.20;99.90;;;;;;4919051;29;20198;-79
2023/01/04 11:07:18;;;;;;;9.50;8.90;;;9.20;99.90;;;;;;4911979;29;20204;-79
2023/01/04 11:09:51;;;;;;;9.10;8.60;;;9.30;99.90;;;;;;4918172;29;20231;-79
2023/01/04 11:12:21;;;;;;;9.70;9.07;;;9.30;99.90;;;;;;4917554;29;20231;-79
2023/01/04 11:14:49;;;;;;;9.03;8.53;;;9.40;99.90;;;;;;4920364;29;20192;-79
2023/01/04 11:17:18;;;;;;;9.10;8.50;;;9.50;99.90;;;;;;4919389;29;20259;-79
2023/01/04 11:19:45;;;;;;;8.47;7.97;;;9.60;99.90;;;;;;4919070;29;20223;-80
2023/01/04 11:22:17;;;;;;;8.70;8.20;;;9.70;99.90;;;;;;4918560;29;20220;-77
2023/01/04 11:24:47;;;;;;;8.83;8.33;;;9.70;99.90;;;;;;4918023;29;20259;-78
2023/01/04 11:27:18;;;;;;;9.17;8.57;;;9.80;99.90;;;;;;4919273;29;20204;-78
2023/01/04 11:29:51;;;;;;;9.00;8.40;;;9.80;99.90;;;;;;4917095;29;20283;-78
2023/01/04 11:32:27;;;;;;;9.03;8.33;;;9.90;99.90;;;;;;4916758;29;20255;-78
2023/01/04 11:34:56;;;;;;;9.23;8.73;;;9.90;99.90;;;;;;4919219;29;20449;-78
2023/01/04 11:37:26;;;;;;;9.00;8.50;;;10.00;99.90;;;;;;4917652;29;20291;-78
2023/01/04 11:40:12;;;;;;;9.10;8.60;;;10.00;99.90;;;;;;4918415;29;20227;-75
2023/01/04 11:42:39;;;;;;;9.20;8.70;;;10.10;99.90;;;;;;4917930;29;20262;-76
2023/01/04 11:45:16;;;;;;;9.70;9.07;;;10.00;99.90;;;;;;4917917;29;20721;-77
2023/01/04 11:47:50;;;;;;;9.13;8.63;;;10.00;99.90;;;;;;4916769;29;20201;-77
2023/01/04 11:50:35;;;;;;;9.67;9.13;;;10.10;99.90;;;;;;4916023;29;20626;-77
2023/01/04 11:53:02;;;;;;;9.57;8.97;;;10.10;99.90;;;;;;4916521;29;20215;-77
2023/01/04 11:55:30;;;;;;;9.37;8.87;;;10.10;99.90;;;;;;4900084;29;20201;-77
2023/01/04 11:58:07;;;;;;;9.40;8.80;;;10.20;99.90;;;;;;4909033;29;20244;-77
2023/01/04 12:00:34;;;;;;;9.70;9.10;;;10.20;99.90;;;;;;4910074;29;20616;-77
2023/01/04 12:03:13;;;;;;;9.57;9.07;;;10.20;99.90;;;;;;4917194;29;20673;-77
2023/01/04 12:05:40;;;;;;;9.50;8.90;;;10.20;99.90;;;;;;4911504;29;20200;-77
2023/01/04 12:08:14;;;;;;;9.27;8.77;;;10.30;99.90;;;;;;4916319;29;20284;-77
2023/01/04 12:10:42;;;;;;;9.60;9.00;;;10.30;99.90;;;;;;4916168;29;20555;-76
2023/01/04 12:13:09;;;;;;;9.60;9.03;;;10.30;99.90;;;;;;4913014;29;20264;-77
2023/01/04 12:15:44;;;;;;;10.03;9.30;;;10.40;99.90;;;;;;4907475;29;20818;-77
2023/01/04 12:18:17;;;;;;;10.13;9.43;;;10.40;99.90;;;;;;4915266;29;20262;-77
2023/01/04 12:20:44;;;;;;;10.00;9.30;;;10.40;99.90;;;;;;4916539;29;20229;-77
2023/01/04 12:23:13;;;;;;;9.87;9.27;;;10.50;99.90;;;;;;4915834;29;20213;-77
2023/01/04 12:25:44;;;;;;;10.07;9.37;;;10.50;99.90;;;;;;4916520;29;20199;-77
2023/01/04 12:28:29;;;;;;;8.83;8.33;;;10.40;99.90;;;;;;4917135;29;20205;-77
2023/01/04 12:31:32;;;;;;;9.60;8.90;;;10.40;99.90;;;;;;4915419;29;20241;-82
2023/01/04 12:34:48;;;;;;;9.80;9.20;;;10.40;99.90;;;;;;4905048;29;20276;-77
2023/01/04 12:37:48;;;;;;;9.00;8.50;;;10.40;99.90;;;;;;4885631;29;20218;-77
2023/01/04 12:40:52;;;;;;;9.60;8.90;;;10.50;99.90;;;;;;4915310;29;20195;-77
2023/01/04 12:43:24;;;;;;;9.60;8.90;;;10.50;99.90;;;;;;4916937;29;20200;-77
2023/01/04 12:49:45;;;;;;;9.07;8.50;;;10.50;99.90;;;;;;4914480;29;20274;-77
2023/01/04 12:52:40;;;;;;;9.30;8.80;;;10.50;99.90;;;;;;4914999;29;20229;-77
2023/01/04 12:55:27;;;;;;;9.00;8.50;;;10.50;99.90;;;;;;4916513;29;20206;-77
2023/01/04 12:57:54;;;;;;;9.20;8.60;;;10.60;99.90;;;;;;4916452;29;20210;-77
2023/01/04 13:00:21;;;;;;;9.40;8.80;;;10.60;99.90;;;;;;4914370;29;20211;-77
2023/01/04 13:03:08;;;;;;;9.03;8.53;;;10.60;99.90;;;;;;4915102;29;20237;-77
2023/01/04 13:05:38;;;;;;;9.50;8.97;;;10.60;99.90;;;;;;4908884;29;20659;-77
2023/01/04 13:08:10;;;;;;;9.63;9.03;;;10.70;99.90;;;;;;4915839;29;20206;-77
2023/01/04 13:10:40;;;;;;;9.53;9.03;;;10.70;99.90;;;;;;4914102;29;20201;-77
2023/01/04 13:13:21;;;;;;;9.57;9.00;;;10.70;99.90;;;;;;4916474;29;20206;-77
2023/01/04 13:16:01;;;;;;;9.57;8.97;;;10.70;99.90;;;;;;4915070;29;20203;-77
2023/01/04 13:18:34;;;;;;;9.23;8.73;;;10.70;99.90;;;;;;4907339;29;20205;-77
2023/01/04 13:21:09;;;;;;;10.67;9.80;;;10.70;99.90;;;;;;4914052;29;20230;-77
2023/01/04 13:23:36;;;;;;;10.33;9.73;;;10.70;99.90;;;;;;4915333;29;20206;-77
2023/01/04 13:26:29;;;;;;;10.07;9.47;;;10.70;99.90;;;;;;4914943;29;20242;-76
2023/01/04 13:29:07;;;;;;;10.37;9.77;;;10.70;99.90;;;;;;4910295;29;20232;-76
2023/01/04 13:31:42;;;;;;;9.53;9.00;;;10.70;99.90;;;;;;4911546;29;20790;-77
2023/01/04 13:34:18;;;;;;;9.60;9.10;;;10.70;99.90;;;;;;4917311;29;20210;-79
2023/01/04 13:36:54;;;;;;;9.80;9.20;;;10.70;99.90;;;;;;4918376;29;20202;-77
2023/01/04 13:39:21;;;;;;;9.93;9.33;;;10.70;99.90;;;;;;4915887;29;20705;-75
2023/01/04 13:41:51;;;;;;;10.23;9.63;;;10.70;99.90;;;;;;4915198;29;20230;-77
2023/01/04 13:44:30;;;;;;;10.43;9.83;;;10.70;99.90;;;;;;4916617;29;20207;-78
2023/01/04 13:46:57;;;;;;;10.33;9.63;;;10.80;99.90;;;;;;4916153;29;20191;-78
2023/01/04 13:49:24;;;;;;;10.47;9.80;;;10.70;99.90;;;;;;4911940;29;20639;-79
2023/01/04 13:51:55;;;;;;;10.70;9.90;;;10.70;99.90;;;;;;4903225;29;20281;-78
2023/01/04 13:54:23;;;;;;;10.70;9.90;;;10.70;99.90;;;;;;4912066;29;20212;-78
2023/01/04 13:56:53;;;;;;;10.90;10.20;;;10.70;99.90;;;;;;4915801;29;20715;-77
2023/01/04 13:59:20;;;;;;;10.80;10.20;;;10.70;99.90;;;;;;4906795;29;20208;-76
2023/01/04 14:01:48;;;;;;;10.60;9.90;;;10.70;99.90;;;;;;4901163;29;20222;-77
2023/01/04 14:04:22;;;;;;;10.30;9.70;;;10.60;99.90;;;;;;4928907;29;20209;-77
2023/01/04 14:06:50;;;;;;;10.30;9.70;;;10.70;99.90;;;;;;4914460;29;20203;-78
2023/01/04 14:09:22;;;;;;;10.33;9.70;;;10.60;99.90;;;;;;4900756;29;20644;-78
2023/01/04 14:12:00;;;;;;;10.30;9.80;;;10.70;99.90;;;;;;4925950;29;20228;-77
2023/01/04 14:14:35;;;;;;;10.20;9.70;;;10.70;99.90;;;;;;4914613;29;20297;-78
2023/01/04 14:17:20;;;;;;;10.40;9.80;;;10.70;99.90;;;;;;4915574;29;20205;-78
2023/01/04 14:19:50;;;;;;;10.60;10.00;;;10.70;99.90;;;;;;4914442;29;20254;-78
2023/01/04 14:22:45;;;;;;;10.30;9.70;;;10.70;99.90;;;;;;4915661;29;20231;-78
2023/01/04 14:25:43;;;;;;;10.63;9.93;;;10.70;99.90;;;;;;4915691;29;20205;-78
2023/01/04 14:28:32;;;;;;;12.20;11.00;;;10.70;99.90;;;;;;4915977;29;20211;-78
2023/01/04 14:31:25;;;;;;;10.53;9.93;;;10.70;99.90;;;;;;4918663;29;20241;-78
2023/01/04 14:33:53;;;;;;;10.60;10.00;;;10.70;99.90;;;;;;4905491;29;20203;-80
2023/01/04 14:36:25;;;;;;;10.73;10.00;;;10.70;99.90;;;;;;4920755;29;20209;-80
2023/01/04 14:39:11;;;;;;;10.70;10.10;;;10.70;99.90;;;;;;4921966;29;20283;-81
2023/01/04 14:41:41;;;;;;;10.30;9.60;;;10.70;99.90;;;;;;4907842;29;20638;-79
2023/01/04 14:44:14;;;;;;;11.03;10.40;;;10.70;99.90;;;;;;4919957;29;20212;-79
2023/01/04 14:46:44;;;;;;;10.70;10.10;;;10.70;99.90;;;;;;4913016;29;20206;-83
2023/01/04 14:49:11;;;;;;;10.40;9.80;;;10.70;99.90;;;;;;4918400;29;20222;-78
2023/01/04 14:51:42;;;;;;;10.50;9.90;;;10.60;99.90;;;;;;4917862;29;20233;-78
2023/01/04 14:54:11;;;;;;;10.60;10.00;;;10.60;99.90;;;;;;4919236;29;20218;-78
2023/01/04 14:56:40;;;;;;;10.50;9.93;;;10.60;99.90;;;;;;4918465;29;20559;-79
2023/01/04 14:59:07;;;;;;;10.53;9.93;;;10.60;99.90;;;;;;4919411;29;20670;-79
2023/01/04 15:01:34;;;;;;;10.80;10.20;;;10.60;99.90;;;;;;4917521;29;20237;-79
2023/01/04 15:04:02;;;;;;;10.73;10.13;;;10.60;99.90;;;;;;4918584;29;20206;-77
2023/01/04 15:06:29;;;;;;;10.47;9.87;;;10.50;99.90;;;;;;4914273;29;20204;-76
2023/01/04 15:08:55;;;;;;;10.57;9.97;;;10.50;99.90;;;;;;4919470;29;20225;-78
2023/01/04 15:11:22;;;;;;;10.50;9.80;;;10.50;99.90;;;;;;4919043;29;20314;-78
2023/01/04 15:13:50;;;;;;;10.60;10.00;;;10.50;99.90;;;;;;4918101;29;20727;-79
2023/01/04 15:16:18;;;;;;;9.80;9.30;;;10.40;99.90;;;;;;4918084;29;20745;-77
2023/01/04 15:18:46;;;;;;;10.23;9.63;;;10.40;99.90;;;;;;4918905;29;20264;-80
2023/01/04 15:21:13;;;;;;;10.60;10.00;;;10.40;99.90;;;;;;4919688;29;20288;-78
2023/01/04 15:23:40;;;;;;;10.53;9.90;;;10.40;99.90;;;;;;4918629;29;20197;-78
2023/01/04 15:26:08;;;;;;;11.47;10.67;;;10.40;99.90;;;;;;4917723;29;20208;-78
2023/01/04 15:28:35;;;;;;;10.90;10.30;;;10.30;99.90;;;;;;4916768;29;20228;-78
2023/01/04 15:31:07;;;;;;;10.50;9.90;;;10.30;99.90;;;;;;4918002;29;20312;-79
2023/01/04 15:33:34;;;;;;;10.00;9.40;;;10.30;99.90;;;;;;4910842;29;20263;-77
2023/01/04 15:36:02;;;;;;;10.67;10.07;;;10.30;99.90;;;;;;4918537;29;20206;-77
2023/01/04 15:38:32;;;;;;;10.27;9.67;;;10.30;99.90;;;;;;4917468;29;20200;-78
2023/01/04 15:41:00;;;;;;;10.30;9.70;;;10.30;99.90;;;;;;4916038;29;20310;-77
2023/01/04 15:43:26;;;;;;;10.50;9.90;;;10.20;99.90;;;;;;4919398;29;20208;-77
2023/01/04 15:45:53;;;;;;;10.37;9.77;;;10.20;99.90;;;;;;4917563;29;20292;-77
2023/01/04 15:48:21;;;;;;;10.07;9.20;;;10.20;99.90;;;;;;4918757;29;20236;-77
2023/01/04 15:50:48;;;;;;;9.93;9.33;;;10.20;99.90;;;;;;4916814;29;20232;-77
2023/01/04 15:53:15;;;;;;;10.47;9.77;;;10.10;99.90;;;;;;4918167;29;20246;-78
2023/01/04 15:55:42;;;;;;;10.40;9.63;;;10.10;99.90;;;;;;4919020;29;20717;-77
2023/01/04 15:58:08;;;;;;;10.57;9.97;;;10.10;99.90;;;;;;4917822;29;20659;-77
2023/01/04 16:00:36;;;;;;;10.73;10.10;;;10.10;99.90;;;;;;4917233;29;20197;-78
2023/01/04 16:03:04;;;;;;;10.30;9.70;;;10.10;99.90;;;;;;4918760;29;20204;-77
2023/01/04 16:05:33;;;;;;;9.87;9.37;;;10.10;99.90;;;;;;4917159;29;20232;-77
2023/01/04 16:07:59;;;;;;;10.20;9.60;;;10.10;99.90;;;;;;4918001;29;20215;-77
2023/01/04 16:10:27;;;;;;;9.90;9.40;;;10.10;99.90;;;;;;4916364;29;20641;-77
2023/01/04 16:12:53;;;;;;;9.83;9.33;;;10.10;99.90;;;;;;4918768;29;20208;-77
2023/01/04 16:15:21;;;;;;;9.60;9.10;;;10.10;99.90;;;;;;4918199;29;20737;-78
2023/01/04 16:17:48;;;;;;;10.10;9.50;;;10.10;99.90;;;;;;4918683;29;20661;-81
2023/01/04 16:20:18;;;;;;;9.77;9.27;;;10.10;99.90;;;;;;4917258;29;20210;-81
2023/01/04 16:22:48;;;;;;;9.77;9.27;;;10.10;99.90;;;;;;4920304;29;20267;-79
2023/01/04 16:25:15;;;;;;;10.00;9.40;;;10.10;99.90;;;;;;4921040;29;20200;-78
2023/01/04 16:27:42;;;;;;;9.77;9.10;;;10.10;99.90;;;;;;4921498;29;20623;-79
2023/01/04 16:30:12;;;;;;;10.00;9.40;;;10.10;99.90;;;;;;4920535;29;20294;-80
2023/01/04 16:32:41;;;;;;;10.30;9.70;;;10.10;99.90;;;;;;4922031;29;20921;-79
2023/01/04 16:35:09;;;;;;;10.50;9.80;;;10.10;99.90;;;;;;4918098;29;20208;-79
2023/01/04 16:37:36;;;;;;;10.17;9.57;;;10.10;99.90;;;;;;4918954;29;20200;-80
2023/01/04 16:40:05;;;;;;;9.90;9.30;;;10.10;99.90;;;;;;4914715;29;20664;-78
2023/01/04 16:42:32;;;;;;;10.10;9.50;;;10.10;99.90;;;;;;4916719;29;20222;-80